createdAt,value
2023-02-09T00:00:18.184Z,35.43
2023-02-09T00:02:47.136Z,24.13
2023-02-09T00:05:16.683Z,38.13
2023-02-09T00:07:44.882Z,38.17
2023-02-09T00:10:15.573Z,22.20
2023-02-09T00:13:01.067Z,17.93
2023-02-09T00:15:29.334Z,19.17
2023-02-09T00:17:58.035Z,17.30
2023-02-09T00:20:27.557Z,18.57
2023-02-09T00:22:55.694Z,14.27
2023-02-09T00:25:23.898Z,15.87
2023-02-09T00:27:52.136Z,24.27
2023-02-09T00:30:20.593Z,18.27
2023-02-09T00:32:48.837Z,24.90
2023-02-09T00:35:17.217Z,14.27
2023-02-09T00:37:46.905Z,8.37
2023-02-09T00:40:15.116Z,11.87
2023-02-09T00:42:43.281Z,12.27
2023-02-09T00:45:11.579Z,21.60
2023-02-09T00:47:39.768Z,17.33
2023-02-09T00:50:08.503Z,15.77
2023-02-09T00:52:36.765Z,16.60
2023-02-09T00:55:07.046Z,7.03
2023-02-09T00:57:36.058Z,9.83
2023-02-09T01:00:04.997Z,10.80
2023-02-09T01:02:33.363Z,12.33
2023-02-09T01:05:01.826Z,7.43
2023-02-09T01:07:30.181Z,12.37
2023-02-09T01:09:59.935Z,11.33
2023-02-09T01:12:30.086Z,16.07
2023-02-09T01:14:58.483Z,19.30
2023-02-09T01:17:27.861Z,10.23
2023-02-09T01:19:56.320Z,8.13
2023-02-09T01:22:24.689Z,5.57
2023-02-09T01:24:55.707Z,21.83
2023-02-09T01:27:24.146Z,5.80
2023-02-09T01:29:55.170Z,13.47
2023-02-09T01:32:24.270Z,8.97
2023-02-09T01:34:53.753Z,24.50
2023-02-09T01:37:22.805Z,17.97
2023-02-09T01:39:51.108Z,17.27
2023-02-09T01:42:21.057Z,12.00
2023-02-09T01:45:21.450Z,16.03
2023-02-09T01:47:55.511Z,13.53
2023-02-09T01:50:25.686Z,10.90
2023-02-09T01:52:54.718Z,24.90
2023-02-09T01:55:26.671Z,19.27
2023-02-09T01:57:58.243Z,12.37
2023-02-09T02:00:28.463Z,22.83
2023-02-09T02:02:59.814Z,18.03
2023-02-09T02:05:29.185Z,20.77
2023-02-09T02:08:02.880Z,18.43
2023-02-09T02:10:31.926Z,25.90
2023-02-09T02:13:00.433Z,20.30
2023-02-09T02:15:34.385Z,20.17
2023-02-09T02:18:16.126Z,30.40
2023-02-09T02:21:09.437Z,29.23
2023-02-09T02:23:48.394Z,10.83
2023-02-09T02:26:49.481Z,18.53
2023-02-09T02:29:53.024Z,18.57
2023-02-09T02:32:38.669Z,14.57
2023-02-09T02:35:13.927Z,22.97
2023-02-09T02:37:55.891Z,22.90
2023-02-09T02:40:34.135Z,19.47
2023-02-09T02:43:12.494Z,32.13
2023-02-09T02:45:45.826Z,27.07
2023-02-09T02:48:28.396Z,18.80
2023-02-09T02:51:00.815Z,27.37
2023-02-09T02:53:32.751Z,26.03
2023-02-09T02:56:05.849Z,19.67
2023-02-09T02:58:36.495Z,18.93
2023-02-09T03:01:08.538Z,26.40
2023-02-09T03:03:41.007Z,26.17
2023-02-09T03:06:10.362Z,18.63
2023-02-09T03:08:52.860Z,23.67
2023-02-09T03:11:23.228Z,26.40
2023-02-09T03:14:13.937Z,13.57
2023-02-09T03:16:47.207Z,15.23
2023-02-09T03:19:26.346Z,25.47
2023-02-09T03:21:59.243Z,18.07
2023-02-09T03:24:36.839Z,17.70
2023-02-09T03:27:12.089Z,20.87
2023-02-09T03:29:41.104Z,17.50
2023-02-09T03:32:10.495Z,12.90
2023-02-09T03:34:40.341Z,24.00
2023-02-09T03:37:08.849Z,14.93
2023-02-09T03:39:37.435Z,23.70
2023-02-09T03:42:06.077Z,28.53
2023-02-09T03:44:34.344Z,12.03
2023-02-09T03:47:04.253Z,15.57
2023-02-09T03:49:34.903Z,18.43
2023-02-09T03:52:05.088Z,9.63
2023-02-09T03:54:34.482Z,14.47
2023-02-09T03:57:03.125Z,17.20
2023-02-09T03:59:31.335Z,12.17
2023-02-09T04:02:00.224Z,20.30
2023-02-09T04:04:28.758Z,12.27
2023-02-09T04:06:57.237Z,7.10
2023-02-09T04:09:27.828Z,22.03
2023-02-09T04:11:56.235Z,19.77
2023-02-09T04:14:24.634Z,16.70
2023-02-09T04:16:52.810Z,15.50
2023-02-09T04:19:21.049Z,14.97
2023-02-09T04:21:49.235Z,18.17
2023-02-09T04:24:22.286Z,21.73
2023-02-09T04:26:51.815Z,9.70
2023-02-09T04:29:20.009Z,9.73
2023-02-09T04:31:49.025Z,14.63
2023-02-09T04:34:17.341Z,19.20
2023-02-09T04:36:45.556Z,19.63
2023-02-09T04:39:13.904Z,12.73
2023-02-09T04:41:42.055Z,13.47
2023-02-09T04:44:12.053Z,24.50
2023-02-09T04:46:40.205Z,12.27
2023-02-09T04:49:08.381Z,8.80
2023-02-09T04:51:37.496Z,19.30
2023-02-09T04:54:05.717Z,18.73
2023-02-09T04:56:35.123Z,5.90
2023-02-09T04:59:20.870Z,23.27
2023-02-09T05:01:50.413Z,6.60
2023-02-09T05:04:18.583Z,14.77
2023-02-09T05:06:46.850Z,21.80
2023-02-09T05:09:14.992Z,14.03
2023-02-09T05:11:43.185Z,8.80
2023-02-09T05:14:11.358Z,16.90
2023-02-09T05:16:39.632Z,21.00
2023-02-09T05:19:09.174Z,13.53
2023-02-09T05:21:37.371Z,21.53
2023-02-09T05:24:06.111Z,17.97
2023-02-09T05:26:34.303Z,20.67
2023-02-09T05:29:03.687Z,26.03
2023-02-09T05:31:32.103Z,10.23
2023-02-09T05:34:01.068Z,8.93
2023-02-09T05:36:30.705Z,12.27
2023-02-09T05:38:58.868Z,18.17
2023-02-09T05:41:44.210Z,10.73
2023-02-09T05:44:13.235Z,11.13
2023-02-09T05:46:41.827Z,5.57
2023-02-09T05:49:10.007Z,9.50
2023-02-09T05:51:39.570Z,12.40
2023-02-09T05:54:07.736Z,9.27
2023-02-09T05:56:37.970Z,9.50
2023-02-09T05:59:06.234Z,6.67
2023-02-09T06:01:34.535Z,17.47
2023-02-09T06:04:02.713Z,12.60
2023-02-09T06:06:30.876Z,21.73
2023-02-09T06:09:00.434Z,18.50
2023-02-09T06:11:28.691Z,20.27
2023-02-09T06:13:57.105Z,22.80
2023-02-09T06:16:27.102Z,19.17
2023-02-09T06:18:55.357Z,14.63
2023-02-09T06:21:23.538Z,11.40
2023-02-09T06:23:51.759Z,12.97
2023-02-09T06:26:21.856Z,19.93
2023-02-09T06:28:50.073Z,14.47
2023-02-09T06:31:18.385Z,13.80
2023-02-09T06:33:46.605Z,18.50
2023-02-09T06:36:14.877Z,16.00
2023-02-09T06:38:43.055Z,14.23
2023-02-09T06:41:11.357Z,12.80
2023-02-09T06:43:40.993Z,16.37
2023-02-09T06:46:11.109Z,16.87
2023-02-09T06:48:40.099Z,14.37
2023-02-09T06:51:10.001Z,20.07
2023-02-09T06:53:38.685Z,17.47
2023-02-09T06:56:07.808Z,5.50
2023-02-09T06:58:40.731Z,13.40
2023-02-09T07:01:10.934Z,4.90
2023-02-09T07:03:39.728Z,34.80
2023-02-09T07:06:09.973Z,18.57
2023-02-09T07:08:38.684Z,11.57
2023-02-09T07:11:09.556Z,21.47
2023-02-09T07:13:38.638Z,19.00
2023-02-09T07:16:11.471Z,13.53
2023-02-09T07:18:39.834Z,7.77
2023-02-09T07:21:10.038Z,12.63
2023-02-09T07:23:39.107Z,18.00
2023-02-09T07:26:09.469Z,24.10
2023-02-09T07:28:38.560Z,24.30
2023-02-09T07:31:10.724Z,28.43
2023-02-09T07:33:39.189Z,24.27
2023-02-09T07:36:10.741Z,21.00
2023-02-09T07:38:39.624Z,32.23
2023-02-09T07:41:09.090Z,24.73
2023-02-09T07:43:37.255Z,29.63
2023-02-09T07:46:07.837Z,42.40
2023-02-09T07:48:37.988Z,31.53
2023-02-09T07:51:07.219Z,36.97
2023-02-09T07:53:35.401Z,40.97
2023-02-09T07:56:06.791Z,25.65
2023-02-09T07:58:35.340Z,27.25
2023-02-09T08:01:06.351Z,26.07
2023-02-09T08:03:37.992Z,38.28
2023-02-09T08:06:12.606Z,27.77
2023-02-09T08:08:40.732Z,31.50
2023-02-09T08:11:09.101Z,29.75
2023-02-09T08:13:40.812Z,33.08
2023-02-09T08:16:13.737Z,33.28
2023-02-09T08:18:45.801Z,39.20
2023-02-09T08:21:16.618Z,27.60
2023-02-09T08:23:47.223Z,30.15
2023-02-09T08:26:18.557Z,27.88
2023-02-09T08:28:47.476Z,25.25
2023-02-09T08:31:17.951Z,30.10
2023-02-09T08:33:49.344Z,26.00
2023-02-09T08:36:19.007Z,23.35
2023-02-09T08:38:48.044Z,22.27
2023-02-09T08:41:18.866Z,28.38
2023-02-09T08:43:49.123Z,23.77
2023-02-09T08:46:17.389Z,25.55
2023-02-09T08:48:48.340Z,31.52
2023-02-09T08:51:17.605Z,27.00
2023-02-09T08:53:54.461Z,31.35
2023-02-09T08:56:23.514Z,31.65
2023-02-09T08:58:51.720Z,31.13
2023-02-09T09:01:20.030Z,36.92
2023-02-09T09:03:49.657Z,35.75
2023-02-09T09:06:17.885Z,33.72
2023-02-09T09:08:46.026Z,32.45
2023-02-09T09:11:15.396Z,33.88
2023-02-09T09:13:44.447Z,34.97
2023-02-09T09:16:20.280Z,33.75
2023-02-09T09:18:50.326Z,36.72
2023-02-09T09:21:20.143Z,38.20
2023-02-09T09:23:48.683Z,44.25
2023-02-09T09:26:18.117Z,43.83
2023-02-09T09:28:46.456Z,37.50
2023-02-09T09:31:16.804Z,39.30
2023-02-09T09:33:45.653Z,33.10
2023-02-09T09:36:19.280Z,33.50
2023-02-09T09:38:47.544Z,29.27
2023-02-09T09:41:23.097Z,35.05
2023-02-09T09:43:53.217Z,36.45
2023-02-09T09:46:23.416Z,34.15
2023-02-09T09:48:54.378Z,29.33
2023-02-09T09:51:29.730Z,31.02
2023-02-09T09:54:01.433Z,30.40
2023-02-09T09:56:31.419Z,35.08
2023-02-09T09:59:00.834Z,26.02
2023-02-09T10:01:32.190Z,35.28
2023-02-09T10:04:03.164Z,31.17
2023-02-09T10:06:33.731Z,28.70
2023-02-09T10:09:05.647Z,33.05
2023-02-09T10:11:39.476Z,21.15
2023-02-09T10:14:10.451Z,24.95
2023-02-09T10:16:39.072Z,33.85
2023-02-09T10:19:17.956Z,29.80
2023-02-09T10:21:48.891Z,27.23
2023-02-09T10:24:23.112Z,26.70
2023-02-09T10:27:05.076Z,23.98
2023-02-09T10:29:33.277Z,23.65
2023-02-09T10:32:07.223Z,26.08
2023-02-09T10:34:45.420Z,24.65
2023-02-09T10:37:28.747Z,23.05
2023-02-09T10:40:11.266Z,19.10
2023-02-09T10:42:42.853Z,18.50
2023-02-09T10:45:19.184Z,24.05
2023-02-09T10:47:58.559Z,16.60
2023-02-09T10:50:26.803Z,22.33
2023-02-09T10:52:59.578Z,18.52
2023-02-09T10:55:34.555Z,21.17
2023-02-09T10:58:26.677Z,29.52
2023-02-09T11:01:02.545Z,22.00
2023-02-09T11:03:30.848Z,23.23
2023-02-09T11:06:01.832Z,28.85
2023-02-09T11:08:41.479Z,27.55
2023-02-09T11:11:21.421Z,23.27
2023-02-09T11:13:49.689Z,25.00
2023-02-09T11:16:31.665Z,26.23
2023-02-09T11:19:07.398Z,24.52
2023-02-09T11:21:57.002Z,23.83
2023-02-09T11:24:41.680Z,25.52
2023-02-09T11:27:36.102Z,24.10
2023-02-09T11:30:16.443Z,22.85
2023-02-09T11:32:48.539Z,20.88
2023-02-09T11:35:19.832Z,21.25
2023-02-09T11:37:56.441Z,25.83
2023-02-09T11:40:33.275Z,22.38
2023-02-09T11:43:15.776Z,23.50
2023-02-09T11:45:46.629Z,21.63
2023-02-09T11:48:21.469Z,24.55
2023-02-09T11:51:00.298Z,26.58
2023-02-09T11:53:35.783Z,31.77
2023-02-09T11:56:08.740Z,38.92
2023-02-09T11:58:46.774Z,29.85
2023-02-09T12:01:27.269Z,30.67
2023-02-09T12:04:06.246Z,35.88
2023-02-09T12:06:39.571Z,29.75
2023-02-09T12:09:27.867Z,30.30
2023-02-09T12:12:11.828Z,24.42
2023-02-09T12:15:21.623Z,24.67
2023-02-09T12:17:54.095Z,20.35
2023-02-09T12:20:26.374Z,20.58
2023-02-09T12:23:01.002Z,26.25
2023-02-09T12:25:56.351Z,26.05
2023-02-09T12:28:45.501Z,15.18
2023-02-09T12:31:20.444Z,22.48
2023-02-09T12:34:24.002Z,25.27
2023-02-09T12:37:27.653Z,14.57
2023-02-09T12:40:22.602Z,15.48
2023-02-09T12:43:25.173Z,12.80
2023-02-09T12:46:14.085Z,14.18
2023-02-09T12:49:19.971Z,14.38
2023-02-09T12:52:20.632Z,14.30
2023-02-09T12:54:51.586Z,12.93
2023-02-09T12:57:55.800Z,15.30
2023-02-09T13:00:43.064Z,14.75
2023-02-09T13:03:21.216Z,14.27
2023-02-09T13:05:51.272Z,13.57
2023-02-09T13:08:34.999Z,10.70
2023-02-09T13:11:07.921Z,9.50
2023-02-09T13:13:47.356Z,9.90
2023-02-09T13:16:44.007Z,9.05
2023-02-09T13:19:33.796Z,9.88
2023-02-09T13:22:28.577Z,9.57
2023-02-09T13:25:00.961Z,8.00
2023-02-09T13:27:30.998Z,9.38
2023-02-09T13:30:00.502Z,9.52
2023-02-09T13:32:39.670Z,13.60
2023-02-09T13:35:17.749Z,8.75
2023-02-09T13:37:48.767Z,12.93
2023-02-09T13:40:19.920Z,12.18
2023-02-09T13:42:55.186Z,9.82
2023-02-09T13:45:26.602Z,11.00
2023-02-09T13:47:55.801Z,14.05
2023-02-09T13:50:28.202Z,11.75
2023-02-09T13:53:09.104Z,13.00
2023-02-09T13:55:39.864Z,14.35
2023-02-09T13:58:09.856Z,15.55
2023-02-09T14:00:42.204Z,15.77
2023-02-09T14:03:16.839Z,14.10
2023-02-09T14:05:51.116Z,18.60
2023-02-09T14:08:20.535Z,16.92
2023-02-09T14:10:56.033Z,14.30
2023-02-09T14:13:29.654Z,16.08
2023-02-09T14:16:07.689Z,17.85
2023-02-09T14:18:48.137Z,13.38
2023-02-09T14:21:27.528Z,12.07
2023-02-09T14:24:17.662Z,15.38
2023-02-09T14:26:50.001Z,16.17
2023-02-09T14:29:20.620Z,17.35
2023-02-09T14:31:51.380Z,17.73
2023-02-09T14:34:36.501Z,13.23
2023-02-09T14:37:31.634Z,15.93
2023-02-09T14:40:04.621Z,17.02
2023-02-09T14:42:39.328Z,16.38
2023-02-09T14:45:30.831Z,15.07
2023-02-09T14:47:59.040Z,13.50
2023-02-09T14:50:27.205Z,14.23
2023-02-09T14:53:12.820Z,13.13
2023-02-09T14:55:41.149Z,13.80
2023-02-09T14:58:19.068Z,14.40
2023-02-09T15:00:47.369Z,16.55
2023-02-09T15:03:15.550Z,14.52
2023-02-09T15:05:44.561Z,14.85
2023-02-09T15:08:17.627Z,12.85
2023-02-09T15:10:48.312Z,14.68
2023-02-09T15:13:17.308Z,15.73
2023-02-09T15:15:46.390Z,20.45
2023-02-09T15:18:19.661Z,11.82
2023-02-09T15:20:48.159Z,15.65
2023-02-09T15:23:20.843Z,17.55
2023-02-09T15:25:49.294Z,20.42
2023-02-09T15:28:24.626Z,18.55
2023-02-09T15:30:53.156Z,21.08
2023-02-09T15:33:24.284Z,25.67
2023-02-09T15:35:52.880Z,26.08
2023-02-09T15:38:22.433Z,30.92
2023-02-09T15:41:14.612Z,31.83
2023-02-09T15:44:00.475Z,25.05
2023-02-09T15:46:45.993Z,24.45
2023-02-09T15:49:14.234Z,22.20
2023-02-09T15:51:42.597Z,30.52
2023-02-09T15:54:16.619Z,25.48
2023-02-09T15:56:44.873Z,24.25
2023-02-09T15:59:18.898Z,28.27
2023-02-09T16:01:47.234Z,38.22
2023-02-09T16:04:15.759Z,62.03
2023-02-09T16:06:46.379Z,51.90
2023-02-09T16:09:20.467Z,58.47
2023-02-09T16:11:48.982Z,66.22
2023-02-09T16:14:22.869Z,75.03
2023-02-09T16:16:51.347Z,61.35
2023-02-09T16:19:22.571Z,67.78
2023-02-09T16:21:53.988Z,64.78
2023-02-09T16:24:30.982Z,52.58
2023-02-09T16:27:00.420Z,53.75
2023-02-09T16:29:28.677Z,52.90
2023-02-09T16:31:56.901Z,63.50
2023-02-09T16:34:25.108Z,43.15
2023-02-09T16:36:53.319Z,54.40
2023-02-09T16:39:24.148Z,83.85
2023-02-09T16:41:54.478Z,65.60
2023-02-09T16:44:24.577Z,80.22
2023-02-09T16:46:55.014Z,75.85
2023-02-09T16:49:38.657Z,77.47
2023-02-09T16:52:14.316Z,96.22
2023-02-09T16:54:46.242Z,89.95
2023-02-09T16:57:16.983Z,87.95
2023-02-09T16:59:45.546Z,86.13
2023-02-09T17:02:32.432Z,80.68
2023-02-09T17:05:01.742Z,76.22
2023-02-09T17:07:35.656Z,76.50
2023-02-09T17:10:17.427Z,75.97
2023-02-09T17:12:46.136Z,64.95
2023-02-09T17:15:29.389Z,67.30
2023-02-09T17:18:02.323Z,71.97
2023-02-09T17:20:36.186Z,77.70
2023-02-09T17:23:04.838Z,67.35
2023-02-09T17:25:34.507Z,56.05
2023-02-09T17:28:02.877Z,52.53
2023-02-09T17:30:34.293Z,57.60
2023-02-09T17:33:05.888Z,48.78
2023-02-09T17:36:09.956Z,46.20
2023-02-09T17:38:29.601Z,42.55
2023-02-09T17:41:01.272Z,26.98
2023-02-09T17:43:29.574Z,27.35
2023-02-09T17:45:57.931Z,29.63
2023-02-09T17:48:26.153Z,31.15
2023-02-09T17:50:57.987Z,25.30
2023-02-09T17:53:28.585Z,31.38
2023-02-09T17:55:58.135Z,21.33
2023-02-09T17:58:26.661Z,22.88
2023-02-09T18:00:56.022Z,22.10
2023-02-09T18:03:25.954Z,15.88
2023-02-09T18:06:01.447Z,23.33
2023-02-09T18:08:30.967Z,18.58
2023-02-09T18:11:00.523Z,22.40
2023-02-09T18:13:28.740Z,19.30
2023-02-09T18:15:58.038Z,22.85
2023-02-09T18:18:26.196Z,18.95
2023-02-09T18:20:54.342Z,23.67
2023-02-09T18:23:23.394Z,24.08
2023-02-09T18:25:51.945Z,25.60
2023-02-09T18:28:21.703Z,23.20
2023-02-09T18:30:49.987Z,28.77
2023-02-09T18:33:18.822Z,23.80
2023-02-09T18:35:47.312Z,17.88
2023-02-09T18:38:16.485Z,17.33
2023-02-09T18:40:45.038Z,20.00
2023-02-09T18:43:15.254Z,20.35
2023-02-09T18:45:45.472Z,20.15
2023-02-09T18:48:14.319Z,32.45
2023-02-09T18:50:42.529Z,24.35
2023-02-09T18:53:12.699Z,23.23
2023-02-09T18:55:40.840Z,18.27
2023-02-09T18:58:10.287Z,20.88
2023-02-09T19:00:38.472Z,19.95
2023-02-09T19:03:07.992Z,19.77
2023-02-09T19:05:36.983Z,20.90
2023-02-09T19:08:07.240Z,22.48
2023-02-09T19:10:38.527Z,19.98
2023-02-09T19:13:07.408Z,19.35
2023-02-09T19:15:38.668Z,20.23
2023-02-09T19:18:08.195Z,20.17
2023-02-09T19:20:36.395Z,26.73
2023-02-09T19:23:06.681Z,20.10
2023-02-09T19:25:37.011Z,29.15
2023-02-09T19:28:05.533Z,21.90
2023-02-09T19:30:33.810Z,22.77
2023-02-09T19:33:02.179Z,22.67
2023-02-09T19:35:31.951Z,21.33
2023-02-09T19:38:00.226Z,27.87
2023-02-09T19:40:35.547Z,24.02
2023-02-09T19:43:04.520Z,22.67
2023-02-09T19:45:36.414Z,25.55
2023-02-09T19:48:06.113Z,35.22
2023-02-09T19:50:36.763Z,41.65
2023-02-09T19:53:06.946Z,25.52
2023-02-09T19:55:38.398Z,26.73
2023-02-09T19:58:06.558Z,31.25
2023-02-09T20:00:36.825Z,18.60
2023-02-09T20:03:05.463Z,18.65
2023-02-09T20:05:37.632Z,20.37
2023-02-09T20:08:06.084Z,29.47
2023-02-09T20:10:34.227Z,35.57
2023-02-09T20:13:02.385Z,25.97
2023-02-09T20:15:30.571Z,28.33
2023-02-09T20:17:59.077Z,22.43
2023-02-09T20:20:27.242Z,40.57
2023-02-09T20:22:56.937Z,42.43
2023-02-09T20:25:25.083Z,33.67
2023-02-09T20:27:53.351Z,29.87
2023-02-09T20:30:22.517Z,41.60
2023-02-09T20:32:51.116Z,36.50
2023-02-09T20:35:19.515Z,23.80
2023-02-09T20:37:47.698Z,17.73
2023-02-09T20:40:17.734Z,30.73
2023-02-09T20:43:03.582Z,40.40
2023-02-09T20:45:49.109Z,32.73
2023-02-09T20:48:17.424Z,36.60
2023-02-09T20:50:46.216Z,18.30
2023-02-09T20:53:14.566Z,27.50
2023-02-09T20:55:44.450Z,25.37
2023-02-09T20:58:21.710Z,33.07
2023-02-09T21:00:50.088Z,22.27
2023-02-09T21:03:18.742Z,31.90
2023-02-09T21:05:47.203Z,30.07
2023-02-09T21:08:18.330Z,21.07
2023-02-09T21:10:48.139Z,25.17
2023-02-09T21:13:16.505Z,19.07
2023-02-09T21:15:44.890Z,24.80
2023-02-09T21:18:13.084Z,20.13
2023-02-09T21:20:43.837Z,12.57
2023-02-09T21:23:12.366Z,20.00
2023-02-09T21:25:40.541Z,20.43
2023-02-09T21:28:10.260Z,15.80
2023-02-09T21:30:42.843Z,20.10
2023-02-09T21:33:12.497Z,31.63
2023-02-09T21:35:58.222Z,32.00
2023-02-09T21:38:32.179Z,20.53
2023-02-09T21:41:00.412Z,20.50
2023-02-09T21:43:31.935Z,24.70
2023-02-09T21:46:05.954Z,24.83
2023-02-09T21:48:43.763Z,27.97
2023-02-09T21:51:25.868Z,25.20
2023-02-09T21:53:54.870Z,17.87
2023-02-09T21:56:26.038Z,23.77
2023-02-09T21:59:00.672Z,28.70
2023-02-09T22:01:31.087Z,22.47
2023-02-09T22:04:08.346Z,16.73
2023-02-09T22:06:39.295Z,25.53
2023-02-09T22:09:07.448Z,30.50
2023-02-09T22:11:41.369Z,24.40
2023-02-09T22:14:10.941Z,31.83
2023-02-09T22:16:39.201Z,33.97
2023-02-09T22:19:07.456Z,24.60
2023-02-09T22:21:35.648Z,40.20
2023-02-09T22:24:03.915Z,53.57
2023-02-09T22:26:32.411Z,30.97
2023-02-09T22:29:00.735Z,36.57
2023-02-09T22:31:30.345Z,24.83
2023-02-09T22:33:59.068Z,26.50
2023-02-09T22:36:27.284Z,32.13
2023-02-09T22:38:56.530Z,24.77
2023-02-09T22:41:25.407Z,45.03
2023-02-09T22:43:55.722Z,31.63
2023-02-09T22:46:25.633Z,46.60
2023-02-09T22:48:56.443Z,52.47
2023-02-09T22:51:26.869Z,58.50
2023-02-09T22:53:59.088Z,44.70
2023-02-09T22:56:28.035Z,57.07
2023-02-09T22:58:56.781Z,39.80
2023-02-09T23:01:25.299Z,48.83
2023-02-09T23:03:55.531Z,28.57
2023-02-09T23:06:27.260Z,40.07
2023-02-09T23:08:59.579Z,28.03
2023-02-09T23:11:28.719Z,34.27
2023-02-09T23:14:09.188Z,28.17
2023-02-09T23:16:42.363Z,40.00
2023-02-09T23:19:15.889Z,40.20
2023-02-09T23:21:46.057Z,56.53
2023-02-09T23:24:15.211Z,51.57
2023-02-09T23:26:43.871Z,58.63
2023-02-09T23:29:15.426Z,56.27
2023-02-09T23:31:45.301Z,36.53
2023-02-09T23:34:17.172Z,30.17
2023-02-09T23:36:45.709Z,34.23
2023-02-09T23:39:16.531Z,30.17
2023-02-09T23:41:44.954Z,22.80
2023-02-09T23:44:14.947Z,29.60
2023-02-09T23:46:43.298Z,22.87
2023-02-09T23:49:17.544Z,22.13
2023-02-09T23:51:46.536Z,16.13
2023-02-09T23:54:17.758Z,13.00
2023-02-09T23:56:46.718Z,12.07
2023-02-09T23:59:16.421Z,24.63
